Time;durP1;ratioP1;P1;durP2;ratioP2;P2;SDS_P1;SDS_P2;PMS_P1;PMS_P2;Temp;Humidity;BMP_temperature;BMP_pressure;BME280_temperature;BME280_humidity;BME280_pressure;Samples;Min_cycle;Max_cycle;Signal;HPM_P1;HPM_P2
2023/07/23 00:01:35;;;;;;;15.90;5.13;;;;;;;;;;5225510;28;20071;-71
2023/07/23 00:04:05;;;;;;;7.63;4.25;;;;;;;;;;5225872;28;20029;-70
2023/07/23 00:06:37;;;;;;;9.55;4.20;;;;;;;;;;5225096;28;20021;-70
2023/07/23 00:09:09;;;;;;;12.00;4.47;;;;;;;;;;5216750;28;20426;-70
2023/07/23 00:11:40;;;;;;;9.80;4.53;;;;;;;;;;5223273;28;20474;-70
2023/07/23 00:14:11;;;;;;;7.90;4.00;;;;;;;;;;5225443;28;20067;-70
2023/07/23 00:16:41;;;;;;;7.35;4.25;;;;;;;;;;5224963;28;20482;-70
2023/07/23 00:19:15;;;;;;;7.90;3.83;;;;;;;;;;5224135;28;20028;-70
2023/07/23 00:21:47;;;;;;;7.10;4.80;;;;;;;;;;5225327;28;20029;-70
2023/07/23 00:24:19;;;;;;;11.75;4.50;;;;;;;;;;5225253;28;20013;-71
2023/07/23 00:26:49;;;;;;;4.97;3.50;;;;;;;;;;5224952;28;20021;-70
2023/07/23 00:29:20;;;;;;;8.35;4.18;;;;;;;;;;5225008;28;20028;-70
2023/07/23 00:31:50;;;;;;;10.27;4.38;;;;;;;;;;5225508;28;20029;-70
2023/07/23 00:34:20;;;;;;;7.93;4.43;;;;;;;;;;5223942;28;20063;-71
2023/07/23 00:36:51;;;;;;;10.70;4.20;;;;;;;;;;5224830;28;20021;-71
2023/07/23 00:39:21;;;;;;;7.32;4.03;;;;;;;;;;5223755;28;20017;-71
2023/07/23 00:41:51;;;;;;;14.23;4.80;;;;;;;;;;5224804;28;20021;-70
2023/07/23 00:44:22;;;;;;;8.57;4.20;;;;;;;;;;5224874;28;20513;-71
2023/07/23 00:46:52;;;;;;;7.32;4.20;;;;;;;;;;5224309;28;20028;-71
2023/07/23 00:49:23;;;;;;;7.32;3.80;;;;;;;;;;5224646;28;20021;-71
2023/07/23 00:51:53;;;;;;;10.50;4.22;;;;;;;;;;5224898;28;20021;-70
2023/07/23 00:54:23;;;;;;;12.80;4.50;;;;;;;;;;5224810;28;20115;-71
2023/07/23 00:56:54;;;;;;;9.82;4.28;;;;;;;;;;5223809;28;20479;-70
2023/07/23 00:59:24;;;;;;;10.70;4.95;;;;;;;;;;5224524;28;20033;-71
2023/07/23 01:01:55;;;;;;;9.02;4.07;;;;;;;;;;5224749;28;20575;-71
2023/07/23 01:04:26;;;;;;;12.52;4.55;;;;;;;;;;5224806;28;20175;-71
2023/07/23 01:06:57;;;;;;;10.35;4.43;;;;;;;;;;5225006;28;20071;-70
2023/07/23 01:09:28;;;;;;;9.05;4.43;;;;;;;;;;5224091;28;20013;-70
2023/07/23 01:11:58;;;;;;;7.90;3.88;;;;;;;;;;5224641;28;20382;-70
2023/07/23 01:14:29;;;;;;;11.30;4.00;;;;;;;;;;5224503;28;20572;-70
2023/07/23 01:16:59;;;;;;;8.82;3.92;;;;;;;;;;5224084;28;20358;-70
2023/07/23 01:19:30;;;;;;;11.00;3.95;;;;;;;;;;5224320;28;20059;-70
2023/07/23 01:22:00;;;;;;;8.68;3.78;;;;;;;;;;5224240;28;20032;-70
2023/07/23 01:24:31;;;;;;;9.43;4.10;;;;;;;;;;5224206;28;20102;-70
2023/07/23 01:27:02;;;;;;;9.90;3.97;;;;;;;;;;5223945;28;20024;-70
2023/07/23 01:29:32;;;;;;;8.18;3.88;;;;;;;;;;5224162;28;20017;-70
2023/07/23 01:32:02;;;;;;;11.50;4.00;;;;;;;;;;5224726;28;20048;-70
2023/07/23 01:34:33;;;;;;;9.85;4.30;;;;;;;;;;5223883;28;20466;-70
2023/07/23 01:37:03;;;;;;;6.40;3.58;;;;;;;;;;5223842;28;20063;-71
2023/07/23 01:39:35;;;;;;;7.40;3.22;;;;;;;;;;5224180;28;20029;-70
2023/07/23 01:42:08;;;;;;;6.63;3.40;;;;;;;;;;5224081;28;20025;-70
2023/07/23 01:44:38;;;;;;;8.55;3.50;;;;;;;;;;5224111;28;20017;-70
2023/07/23 01:47:09;;;;;;;9.90;3.58;;;;;;;;;;5223359;28;20023;-70
2023/07/23 01:49:39;;;;;;;7.78;3.50;;;;;;;;;;5224150;28;20024;-70
2023/07/23 01:52:09;;;;;;;6.20;3.20;;;;;;;;;;5224066;28;20088;-70
2023/07/23 01:54:39;;;;;;;8.93;3.90;;;;;;;;;;5224473;28;20082;-70
2023/07/23 01:57:10;;;;;;;6.97;3.40;;;;;;;;;;5222561;28;20071;-70
2023/07/23 01:59:41;;;;;;;6.00;2.85;;;;;;;;;;5224528;28;20425;-70
2023/07/23 02:02:11;;;;;;;7.63;3.30;;;;;;;;;;5228559;28;20029;-71
2023/07/23 02:04:41;;;;;;;9.45;3.47;;;;;;;;;;5228040;28;20021;-71
2023/07/23 02:07:11;;;;;;;10.88;3.90;;;;;;;;;;5227772;28;20522;-70
2023/07/23 02:09:42;;;;;;;7.82;3.28;;;;;;;;;;5227947;28;20013;-71
2023/07/23 02:12:12;;;;;;;13.02;5.00;;;;;;;;;;5227958;28;20025;-70
2023/07/23 02:14:43;;;;;;;7.13;2.95;;;;;;;;;;5227913;28;20107;-70
2023/07/23 02:17:13;;;;;;;6.03;3.25;;;;;;;;;;5227701;28;20070;-70
2023/07/23 02:19:44;;;;;;;5.63;2.75;;;;;;;;;;5227777;28;20033;-71
2023/07/23 02:22:14;;;;;;;5.60;3.20;;;;;;;;;;5227468;28;20398;-72
2023/07/23 02:24:45;;;;;;;7.55;3.42;;;;;;;;;;5227733;28;20017;-71
2023/07/23 02:27:15;;;;;;;7.55;3.38;;;;;;;;;;5227609;28;20025;-71
2023/07/23 02:29:46;;;;;;;8.00;2.83;;;;;;;;;;5227551;28;20019;-70
2023/07/23 02:32:16;;;;;;;9.77;3.72;;;;;;;;;;5227612;28;20479;-70
2023/07/23 02:34:46;;;;;;;7.88;3.28;;;;;;;;;;5227281;28;20025;-70
2023/07/23 02:37:17;;;;;;;6.40;2.97;;;;;;;;;;5227113;28;20017;-70
2023/07/23 02:39:47;;;;;;;7.90;3.75;;;;;;;;;;5227412;28;20105;-70
2023/07/23 02:42:17;;;;;;;13.15;3.78;;;;;;;;;;5227386;28;20482;-71
2023/07/23 02:44:48;;;;;;;7.32;3.28;;;;;;;;;;5227517;28;20021;-71
2023/07/23 02:47:18;;;;;;;9.23;3.42;;;;;;;;;;5226510;28;20489;-71
2023/07/23 02:49:48;;;;;;;4.50;3.22;;;;;;;;;;5227265;28;20024;-71
2023/07/23 02:52:18;;;;;;;10.23;3.58;;;;;;;;;;5227337;28;20065;-71
2023/07/23 02:54:49;;;;;;;9.23;3.15;;;;;;;;;;5227144;28;20040;-71
2023/07/23 02:57:19;;;;;;;7.22;2.75;;;;;;;;;;5226875;28;20025;-70
2023/07/23 02:59:49;;;;;;;8.63;3.45;;;;;;;;;;5226310;28;20099;-70
2023/07/23 03:02:20;;;;;;;6.35;2.80;;;;;;;;;;5227004;28;20070;-71
2023/07/23 03:04:50;;;;;;;7.00;3.30;;;;;;;;;;5226885;28;20028;-71
2023/07/23 03:07:20;;;;;;;6.28;3.13;;;;;;;;;;5226796;28;20013;-70
2023/07/23 03:09:51;;;;;;;7.25;3.30;;;;;;;;;;5226784;28;20159;-71
2023/07/23 03:12:21;;;;;;;9.32;3.22;;;;;;;;;;5226640;28;20083;-71
2023/07/23 03:14:52;;;;;;;7.82;3.20;;;;;;;;;;5226795;28;20509;-71
2023/07/23 03:17:22;;;;;;;6.22;2.70;;;;;;;;;;5226474;28;20100;-71
2023/07/23 03:19:53;;;;;;;7.13;3.17;;;;;;;;;;5213448;28;20028;-70
2023/07/23 03:22:23;;;;;;;7.20;3.00;;;;;;;;;;5226670;28;20025;-71
2023/07/23 03:24:53;;;;;;;8.68;3.47;;;;;;;;;;5226164;28;20518;-71
2023/07/23 03:27:23;;;;;;;6.55;3.85;;;;;;;;;;5226720;28;20028;-71
2023/07/23 03:29:54;;;;;;;10.65;4.28;;;;;;;;;;5226340;28;20059;-71
2023/07/23 03:32:24;;;;;;;7.72;3.47;;;;;;;;;;5226842;28;20378;-71
2023/07/23 03:34:54;;;;;;;7.38;3.03;;;;;;;;;;5226405;28;20355;-71
2023/07/23 03:37:25;;;;;;;8.20;3.25;;;;;;;;;;5225607;28;20017;-70
2023/07/23 03:39:55;;;;;;;6.57;3.00;;;;;;;;;;5226165;28;20150;-71
2023/07/23 03:42:25;;;;;;;6.07;2.95;;;;;;;;;;5226292;28;20463;-70
2023/07/23 03:44:57;;;;;;;8.68;3.00;;;;;;;;;;5226112;28;20013;-70
2023/07/23 03:47:27;;;;;;;8.15;3.13;;;;;;;;;;5225509;28;20036;-71
2023/07/23 03:49:57;;;;;;;4.93;2.55;;;;;;;;;;5225627;28;20475;-71
2023/07/23 03:52:28;;;;;;;9.27;3.22;;;;;;;;;;5225978;28;20487;-70
2023/07/23 03:54:58;;;;;;;11.05;2.90;;;;;;;;;;5225887;28;20021;-71
2023/07/23 03:57:28;;;;;;;9.38;3.10;;;;;;;;;;5225646;28;20052;-71
2023/07/23 03:59:58;;;;;;;4.85;2.72;;;;;;;;;;5225655;28;20025;-71
2023/07/23 04:02:29;;;;;;;8.43;2.92;;;;;;;;;;5225550;28;20485;-71
2023/07/23 04:04:59;;;;;;;7.65;2.80;;;;;;;;;;5226041;28;20078;-71
2023/07/23 04:07:29;;;;;;;14.85;3.17;;;;;;;;;;5225467;28;20017;-71
2023/07/23 04:10:00;;;;;;;9.70;2.95;;;;;;;;;;5225456;28;20048;-71
2023/07/23 04:12:33;;;;;;;7.90;2.78;;;;;;;;;;5225638;28;20028;-71
2023/07/23 04:15:03;;;;;;;4.68;2.40;;;;;;;;;;5225232;28;20021;-71
2023/07/23 04:17:34;;;;;;;6.13;3.00;;;;;;;;;;5225006;28;20113;-71
2023/07/23 04:20:04;;;;;;;6.70;2.70;;;;;;;;;;5225621;28;20044;-71
2023/07/23 04:22:35;;;;;;;10.40;3.53;;;;;;;;;;5224668;28;20137;-71
2023/07/23 04:25:05;;;;;;;10.15;3.30;;;;;;;;;;5225240;28;20471;-71
2023/07/23 04:27:36;;;;;;;6.57;3.05;;;;;;;;;;5224643;28;20360;-71
2023/07/23 04:30:06;;;;;;;7.45;3.30;;;;;;;;;;5225318;28;20032;-71
2023/07/23 04:32:37;;;;;;;4.55;2.90;;;;;;;;;;5225321;28;20028;-71
2023/07/23 04:35:07;;;;;;;6.30;2.75;;;;;;;;;;5225136;28;20027;-71
2023/07/23 04:37:37;;;;;;;8.05;2.65;;;;;;;;;;5224528;28;20413;-70
2023/07/23 04:40:08;;;;;;;6.65;2.78;;;;;;;;;;5224820;28;20017;-71
2023/07/23 04:42:38;;;;;;;5.70;2.83;;;;;;;;;;5225047;28;20029;-70
2023/07/23 04:45:08;;;;;;;9.60;3.03;;;;;;;;;;5224909;28;20096;-71
2023/07/23 04:47:40;;;;;;;7.90;3.13;;;;;;;;;;5224791;28;20025;-70
2023/07/23 04:50:10;;;;;;;4.57;2.60;;;;;;;;;;5224558;28;20386;-71
2023/07/23 04:52:40;;;;;;;12.00;2.60;;;;;;;;;;5224960;28;20025;-71
2023/07/23 04:55:11;;;;;;;5.82;3.15;;;;;;;;;;5224782;28;20097;-71
2023/07/23 04:57:41;;;;;;;8.20;3.38;;;;;;;;;;5224748;28;20071;-71
2023/07/23 05:00:12;;;;;;;6.85;3.20;;;;;;;;;;5224553;28;20128;-71
2023/07/23 05:02:42;;;;;;;5.63;2.92;;;;;;;;;;5224218;28;20386;-71
2023/07/23 05:05:12;;;;;;;4.95;2.65;;;;;;;;;;5224569;28;20021;-71
2023/07/23 05:07:42;;;;;;;7.65;3.35;;;;;;;;;;5224191;28;20048;-71
2023/07/23 05:10:13;;;;;;;6.60;3.22;;;;;;;;;;5224397;28;20074;-70
2023/07/23 05:12:43;;;;;;;6.15;3.33;;;;;;;;;;5224567;28;20025;-71
2023/07/23 05:15:14;;;;;;;8.20;3.20;;;;;;;;;;5224171;28;20074;-71
2023/07/23 05:17:44;;;;;;;7.80;3.30;;;;;;;;;;5224040;28;20032;-71
2023/07/23 05:20:15;;;;;;;6.07;3.00;;;;;;;;;;5224505;28;20033;-71
2023/07/23 05:22:46;;;;;;;8.13;3.65;;;;;;;;;;5224633;28;20462;-71
2023/07/23 05:25:16;;;;;;;7.95;3.60;;;;;;;;;;5224528;28;20036;-71
2023/07/23 05:27:46;;;;;;;8.55;3.33;;;;;;;;;;5223623;28;20025;-71
2023/07/23 05:30:18;;;;;;;6.72;3.50;;;;;;;;;;5224369;28;20378;-71
2023/07/23 05:32:48;;;;;;;9.73;3.88;;;;;;;;;;5224548;28;20028;-71
2023/07/23 05:35:18;;;;;;;6.18;3.33;;;;;;;;;;5223200;28;20078;-71
2023/07/23 05:37:49;;;;;;;6.05;3.33;;;;;;;;;;5223935;28;20032;-71
2023/07/23 05:40:20;;;;;;;8.75;3.75;;;;;;;;;;5223751;28;20052;-71
2023/07/23 05:42:54;;;;;;;13.25;3.63;;;;;;;;;;5224210;28;20021;-70
2023/07/23 05:45:24;;;;;;;7.47;3.20;;;;;;;;;;5223937;28;20040;-70
2023/07/23 05:47:54;;;;;;;7.72;3.83;;;;;;;;;;5223795;28;20063;-71
2023/07/23 05:50:24;;;;;;;11.93;4.57;;;;;;;;;;5223879;28;20052;-71
2023/07/23 05:52:55;;;;;;;10.35;3.70;;;;;;;;;;5223790;28;20028;-71
2023/07/23 05:55:25;;;;;;;6.40;3.67;;;;;;;;;;5224004;28;20025;-71
2023/07/23 05:57:55;;;;;;;7.93;3.95;;;;;;;;;;5224444;28;20097;-70
2023/07/23 06:00:26;;;;;;;9.30;3.67;;;;;;;;;;5223809;28;20438;-71
2023/07/23 06:02:56;;;;;;;11.75;4.43;;;;;;;;;;5223892;28;20260;-71
2023/07/23 06:05:26;;;;;;;8.93;4.07;;;;;;;;;;5223416;28;20017;-71
2023/07/23 06:07:56;;;;;;;8.98;4.22;;;;;;;;;;5223637;28;20501;-71
2023/07/23 06:10:27;;;;;;;8.55;3.95;;;;;;;;;;5223708;28;20025;-71
2023/07/23 06:12:57;;;;;;;8.68;4.25;;;;;;;;;;5223751;28;20025;-71
2023/07/23 06:15:28;;;;;;;6.15;3.67;;;;;;;;;;5223758;28;20496;-71
2023/07/23 06:17:58;;;;;;;11.18;4.20;;;;;;;;;;5223124;28;20033;-71
2023/07/23 06:20:28;;;;;;;10.60;4.68;;;;;;;;;;5223841;28;20032;-71
2023/07/23 06:23:00;;;;;;;11.13;4.70;;;;;;;;;;5223500;28;20032;-71
2023/07/23 06:25:30;;;;;;;10.45;5.13;;;;;;;;;;5223526;28;20036;-71
2023/07/23 06:28:01;;;;;;;9.85;4.53;;;;;;;;;;5223114;28;20021;-71
2023/07/23 06:30:33;;;;;;;9.95;5.05;;;;;;;;;;5223460;28;20032;-71
2023/07/23 06:33:03;;;;;;;9.93;5.05;;;;;;;;;;5223814;28;20028;-70
2023/07/23 06:35:37;;;;;;;17.42;5.30;;;;;;;;;;5223401;28;20027;-71
2023/07/23 06:38:07;;;;;;;10.60;5.32;;;;;;;;;;5222359;28;20048;-71
2023/07/23 06:40:43;;;;;;;13.15;5.78;;;;;;;;;;5223221;28;20025;-71
2023/07/23 06:43:14;;;;;;;13.57;5.88;;;;;;;;;;5223640;28;20025;-71
2023/07/23 06:45:45;;;;;;;10.55;5.82;;;;;;;;;;5223792;28;20013;-71
2023/07/23 06:48:18;;;;;;;14.70;7.03;;;;;;;;;;5227085;28;20489;-71
2023/07/23 06:50:48;;;;;;;13.90;5.75;;;;;;;;;;5227206;28;20036;-71
2023/07/23 06:53:19;;;;;;;10.50;4.80;;;;;;;;;;5226802;28;20013;-71
2023/07/23 06:56:06;;;;;;;11.15;5.65;;;;;;;;;;5226838;28;20025;-71
2023/07/23 06:58:37;;;;;;;10.10;5.35;;;;;;;;;;5226996;28;20109;-71
2023/07/23 07:01:08;;;;;;;9.80;5.03;;;;;;;;;;5226948;28;20163;-71
2023/07/23 07:03:39;;;;;;;13.48;5.93;;;;;;;;;;5226630;28;20021;-70
2023/07/23 07:06:09;;;;;;;13.88;5.50;;;;;;;;;;5226488;28;20494;-71
2023/07/23 07:08:39;;;;;;;12.60;5.15;;;;;;;;;;5227123;28;20122;-70
2023/07/23 07:11:10;;;;;;;13.70;5.60;;;;;;;;;;5227008;28;20075;-70
2023/07/23 07:13:40;;;;;;;11.48;5.60;;;;;;;;;;5226903;28;20032;-71
2023/07/23 07:16:10;;;;;;;9.95;5.25;;;;;;;;;;5226124;28;20179;-71
2023/07/23 07:18:41;;;;;;;14.00;5.72;;;;;;;;;;5226630;28;20024;-71
2023/07/23 07:21:11;;;;;;;10.82;5.75;;;;;;;;;;5226433;28;20442;-71
2023/07/23 07:23:41;;;;;;;11.18;5.10;;;;;;;;;;5226626;28;20427;-71
2023/07/23 07:26:11;;;;;;;10.27;5.28;;;;;;;;;;5226420;28;20478;-71
2023/07/23 07:28:42;;;;;;;8.18;5.20;;;;;;;;;;5225893;28;20491;-71
2023/07/23 07:31:15;;;;;;;8.80;4.63;;;;;;;;;;5226481;28;20051;-71
2023/07/23 07:33:45;;;;;;;10.50;5.28;;;;;;;;;;5226529;28;20025;-71
2023/07/23 07:36:16;;;;;;;9.80;5.03;;;;;;;;;;5226025;28;20036;-70
2023/07/23 07:38:47;;;;;;;11.40;5.18;;;;;;;;;;5226162;28;20027;-71
2023/07/23 07:41:17;;;;;;;10.00;5.28;;;;;;;;;;5226514;28;20029;-71
2023/07/23 07:43:47;;;;;;;7.07;3.85;;;;;;;;;;5226521;28;20017;-71
2023/07/23 07:46:18;;;;;;;9.25;4.75;;;;;;;;;;5226011;28;20359;-71
2023/07/23 07:48:48;;;;;;;17.58;4.68;;;;;;;;;;5226061;28;20021;-71
2023/07/23 07:51:18;;;;;;;7.63;3.90;;;;;;;;;;5226269;28;20021;-71
2023/07/23 07:53:49;;;;;;;10.35;4.10;;;;;;;;;;5225688;28;20028;-71
2023/07/23 07:56:19;;;;;;;8.13;3.67;;;;;;;;;;5225710;28;20025;-71
2023/07/23 07:58:50;;;;;;;7.28;3.70;;;;;;;;;;5224910;28;20487;-71
2023/07/23 08:01:20;;;;;;;8.25;3.78;;;;;;;;;;5225688;28;20375;-71
2023/07/23 08:03:51;;;;;;;7.30;3.83;;;;;;;;;;5225939;28;20029;-71
2023/07/23 08:06:22;;;;;;;6.53;3.53;;;;;;;;;;5225218;28;20024;-71
2023/07/23 08:08:53;;;;;;;7.68;3.42;;;;;;;;;;5225998;28;20017;-71
2023/07/23 08:11:24;;;;;;;8.60;3.47;;;;;;;;;;5225574;28;20021;-71
2023/07/23 08:13:55;;;;;;;6.70;3.75;;;;;;;;;;5225909;28;20471;-71
2023/07/23 08:16:25;;;;;;;7.32;3.72;;;;;;;;;;5224851;28;20055;-71
2023/07/23 08:18:56;;;;;;;6.18;3.28;;;;;;;;;;5225420;28;20064;-71
2023/07/23 08:21:26;;;;;;;7.25;3.72;;;;;;;;;;5225570;28;20032;-71
2023/07/23 08:23:57;;;;;;;8.82;4.05;;;;;;;;;;5225326;28;20013;-71
2023/07/23 08:26:29;;;;;;;7.10;3.70;;;;;;;;;;5225163;28;20074;-71
2023/07/23 08:29:02;;;;;;;8.45;4.13;;;;;;;;;;5224733;28;20025;-71
2023/07/23 08:31:33;;;;;;;5.90;3.38;;;;;;;;;;5225633;28;20423;-71
2023/07/23 08:34:03;;;;;;;6.40;3.33;;;;;;;;;;5225272;28;20052;-71
2023/07/23 08:36:34;;;;;;;8.23;3.60;;;;;;;;;;5224980;28;20399;-71
2023/07/23 08:39:04;;;;;;;6.55;3.75;;;;;;;;;;5225076;28;20036;-71
2023/07/23 08:41:37;;;;;;;6.65;3.40;;;;;;;;;;5224743;28;20081;-71
2023/07/23 08:44:25;;;;;;;5.65;3.13;;;;;;;;;;5225272;28;20020;-71
2023/07/23 08:47:08;;;;;;;6.93;3.60;;;;;;;;;;5224624;28;20025;-71
2023/07/23 08:49:39;;;;;;;6.22;3.40;;;;;;;;;;5224923;28;20021;-71
2023/07/23 08:52:11;;;;;;;6.22;3.38;;;;;;;;;;5225052;28;20502;-71
2023/07/23 08:54:42;;;;;;;6.40;3.13;;;;;;;;;;5224674;28;20024;-71
2023/07/23 08:57:12;;;;;;;4.82;2.70;;;;;;;;;;5224912;28;20479;-71
2023/07/23 08:59:43;;;;;;;5.75;2.88;;;;;;;;;;5224643;28;20021;-71
2023/07/23 09:02:13;;;;;;;5.10;2.60;;;;;;;;;;5224403;28;20090;-71
2023/07/23 09:04:43;;;;;;;4.97;2.40;;;;;;;;;;5224446;28;20100;-71
2023/07/23 09:07:16;;;;;;;5.25;3.17;;;;;;;;;;5224140;28;20013;-71
2023/07/23 09:09:47;;;;;;;5.30;2.70;;;;;;;;;;5224363;28;20021;-71
2023/07/23 09:12:17;;;;;;;5.20;3.08;;;;;;;;;;5224554;28;20021;-71
2023/07/23 09:14:48;;;;;;;5.50;3.20;;;;;;;;;;5224011;28;20443;-71
2023/07/23 09:17:19;;;;;;;3.50;2.50;;;;;;;;;;5223977;28;20028;-71
2023/07/23 09:19:52;;;;;;;5.10;2.97;;;;;;;;;;5224344;28;20025;-71
2023/07/23 09:22:22;;;;;;;7.43;3.05;;;;;;;;;;5224270;28;20021;-71
2023/07/23 09:24:57;;;;;;;4.20;2.58;;;;;;;;;;5224578;28;20021;-71
2023/07/23 09:27:46;;;;;;;4.85;3.13;;;;;;;;;;5223628;28;20025;-71
2023/07/23 09:30:18;;;;;;;5.07;2.75;;;;;;;;;;5224274;28;20432;-72
2023/07/23 09:33:07;;;;;;;5.93;3.45;;;;;;;;;;5224238;28;20031;-71
2023/07/23 09:35:39;;;;;;;5.20;3.03;;;;;;;;;;5223098;28;20025;-71
2023/07/23 09:38:11;;;;;;;6.40;2.92;;;;;;;;;;5224612;28;20478;-70
2023/07/23 09:40:41;;;;;;;5.28;3.60;;;;;;;;;;5224100;28;20166;-71
2023/07/23 09:43:12;;;;;;;5.63;3.22;;;;;;;;;;5224312;28;20021;-71
2023/07/23 09:45:42;;;;;;;5.50;3.47;;;;;;;;;;5223834;28;20044;-71
2023/07/23 09:48:16;;;;;;;5.97;3.60;;;;;;;;;;5224023;28;20470;-71
2023/07/23 09:50:49;;;;;;;7.75;4.13;;;;;;;;;;5224297;28;20017;-71
2023/07/23 09:53:20;;;;;;;5.20;3.33;;;;;;;;;;5224046;28;20021;-71
2023/07/23 09:55:51;;;;;;;4.90;3.42;;;;;;;;;;5224211;28;20347;-71
2023/07/23 09:58:24;;;;;;;6.90;3.88;;;;;;;;;;5224096;28;20040;-71
2023/07/23 10:00:54;;;;;;;8.63;4.07;;;;;;;;;;5223488;28;20108;-71
2023/07/23 10:03:25;;;;;;;6.15;3.90;;;;;;;;;;5223839;28;20580;-71
2023/07/23 10:05:55;;;;;;;7.10;3.97;;;;;;;;;;5223679;28;20021;-71
2023/07/23 10:08:27;;;;;;;6.32;3.72;;;;;;;;;;5223791;28;20014;-71
2023/07/23 10:10:57;;;;;;;8.32;4.53;;;;;;;;;;5223672;28;20064;-71
2023/07/23 10:13:27;;;;;;;8.60;4.43;;;;;;;;;;5223701;28;20059;-71
2023/07/23 10:16:00;;;;;;;8.48;4.28;;;;;;;;;;5223776;28;20045;-71
2023/07/23 10:18:30;;;;;;;6.97;3.92;;;;;;;;;;5223728;28;20027;-71
2023/07/23 10:21:00;;;;;;;6.72;4.28;;;;;;;;;;5225241;28;20032;-71
2023/07/23 10:23:31;;;;;;;7.72;4.53;;;;;;;;;;5227579;28;20025;-71
2023/07/23 10:26:17;;;;;;;6.95;4.43;;;;;;;;;;5227210;28;20029;-71
2023/07/23 10:28:48;;;;;;;6.85;4.57;;;;;;;;;;5227383;28;20014;-71
2023/07/23 10:31:34;;;;;;;7.57;4.40;;;;;;;;;;5227845;28;20027;-71
2023/07/23 10:34:04;;;;;;;;;;;;;;;;;;5227497;28;20100;-71
2023/07/23 10:36:54;;;;;;;7.25;4.32;;;;;;;;;;5227155;28;19925;-71
2023/07/23 10:39:25;;;;;;;9.55;4.05;;;;;;;;;;5214877;28;20029;-71
2023/07/23 10:41:55;;;;;;;6.38;4.25;;;;;;;;;;5227378;28;20027;-71
2023/07/23 10:44:41;;;;;;;7.20;4.57;;;;;;;;;;5227146;28;20017;-71
2023/07/23 10:47:31;;;;;;;6.97;3.97;;;;;;;;;;5225637;28;20021;-71
2023/07/23 10:50:19;;;;;;;8.77;4.15;;;;;;;;;;5227121;28;20067;-72
2023/07/23 10:52:51;;;;;;;9.52;4.47;;;;;;;;;;5226997;28;20025;-72
2023/07/23 10:55:40;;;;;;;6.25;3.80;;;;;;;;;;5227173;28;20009;-71
2023/07/23 10:58:12;;;;;;;6.95;4.60;;;;;;;;;;5227121;28;20024;-72
2023/07/23 11:00:44;;;;;;;8.43;4.18;;;;;;;;;;5227457;28;20508;-72
2023/07/23 11:03:16;;;;;;;10.65;4.07;;;;;;;;;;5225237;28;20036;-72
2023/07/23 11:05:47;;;;;;;7.43;4.10;;;;;;;;;;5226628;28;20475;-72
2023/07/23 11:08:18;;;;;;;9.77;4.72;;;;;;;;;;5226846;28;20025;-72
2023/07/23 11:11:09;;;;;;;8.43;4.03;;;;;;;;;;5226892;28;20028;-72
2023/07/23 11:13:40;;;;;;;6.07;4.15;;;;;;;;;;5215675;28;20075;-72
2023/07/23 11:16:10;;;;;;;6.18;3.80;;;;;;;;;;5226631;28;20051;-72
2023/07/23 11:18:41;;;;;;;7.97;4.28;;;;;;;;;;5226559;28;20033;-71
2023/07/23 11:21:14;;;;;;;6.60;3.97;;;;;;;;;;5226636;28;20023;-72
2023/07/23 11:23:44;;;;;;;11.07;5.40;;;;;;;;;;5226766;28;20025;-72
2023/07/23 11:26:16;;;;;;;9.02;4.63;;;;;;;;;;5225850;28;20582;-71
2023/07/23 11:28:46;;;;;;;5.28;3.85;;;;;;;;;;5226637;28;20104;-72
2023/07/23 11:31:17;;;;;;;9.57;4.28;;;;;;;;;;5226692;28;20116;-72
2023/07/23 11:33:47;;;;;;;6.85;3.95;;;;;;;;;;5225252;28;20454;-72
2023/07/23 11:36:18;;;;;;;8.13;4.00;;;;;;;;;;5226061;28;20071;-72
2023/07/23 11:38:56;;;;;;;6.10;3.95;;;;;;;;;;5226070;28;20493;-72
2023/07/23 11:41:43;;;;;;;5.63;3.47;;;;;;;;;;5226414;28;20021;-72
2023/07/23 11:44:14;;;;;;;7.60;4.00;;;;;;;;;;5213089;28;20398;-72
2023/07/23 11:46:44;;;;;;;8.32;3.92;;;;;;;;;;5225759;28;20071;-72
2023/07/23 11:49:14;;;;;;;6.53;4.00;;;;;;;;;;5225816;28;20028;-72
2023/07/23 11:51:45;;;;;;;6.25;3.97;;;;;;;;;;5226180;28;20048;-72
2023/07/23 11:54:15;;;;;;;5.65;3.70;;;;;;;;;;5226113;28;20080;-72
2023/07/23 11:56:46;;;;;;;8.05;3.78;;;;;;;;;;5225616;28;20024;-72
2023/07/23 11:59:16;;;;;;;7.03;3.80;;;;;;;;;;5225757;28;20024;-72
2023/07/23 12:01:46;;;;;;;6.13;3.88;;;;;;;;;;5225480;28;20068;-72
2023/07/23 12:04:17;;;;;;;5.00;3.60;;;;;;;;;;5226102;28;20131;-72
2023/07/23 12:06:47;;;;;;;6.95;3.78;;;;;;;;;;5225235;28;20017;-72
2023/07/23 12:09:17;;;;;;;5.07;2.95;;;;;;;;;;5225569;28;20017;-72
2023/07/23 12:11:48;;;;;;;7.57;3.08;;;;;;;;;;5225783;28;20021;-72
2023/07/23 12:14:18;;;;;;;7.38;3.80;;;;;;;;;;5225692;28;20383;-72
2023/07/23 12:16:49;;;;;;;8.10;3.10;;;;;;;;;;5225658;28;20029;-72
2023/07/23 12:19:20;;;;;;;7.25;3.55;;;;;;;;;;5225526;28;20033;-72
2023/07/23 12:21:53;;;;;;;5.60;3.25;;;;;;;;;;5225729;28;20367;-72
2023/07/23 12:24:24;;;;;;;8.05;3.38;;;;;;;;;;5225129;28;20025;-72
2023/07/23 12:26:56;;;;;;;12.45;4.03;;;;;;;;;;5225169;28;20013;-72
2023/07/23 12:29:27;;;;;;;7.03;3.22;;;;;;;;;;5225400;28;20024;-72
2023/07/23 12:34:53;;;;;;;6.68;3.33;;;;;;;;;;5224906;28;20025;-72
2023/07/23 12:37:23;;;;;;;10.27;3.42;;;;;;;;;;5224740;28;20047;-72
2023/07/23 12:39:54;;;;;;;6.35;3.40;;;;;;;;;;5225311;28;20025;-72
2023/07/23 12:42:24;;;;;;;4.57;3.17;;;;;;;;;;5225036;28;20025;-72
2023/07/23 12:44:55;;;;;;;6.10;3.55;;;;;;;;;;5224729;28;20363;-72
2023/07/23 12:47:26;;;;;;;9.02;3.50;;;;;;;;;;5224142;28;20020;-72
2023/07/23 12:49:59;;;;;;;6.75;3.33;;;;;;;;;;5224959;28;20056;-72
2023/07/23 12:52:29;;;;;;;9.23;3.88;;;;;;;;;;5225152;28;20017;-72
2023/07/23 12:55:00;;;;;;;5.40;3.50;;;;;;;;;;5224824;28;20545;-72
2023/07/23 12:57:30;;;;;;;5.78;3.55;;;;;;;;;;5224623;28;20074;-72
2023/07/23 13:00:00;;;;;;;10.05;3.83;;;;;;;;;;5224208;28;20445;-72
2023/07/23 13:02:31;;;;;;;10.75;3.70;;;;;;;;;;5224635;28;20032;-72
2023/07/23 13:05:01;;;;;;;5.30;3.72;;;;;;;;;;5224911;28;20025;-72
2023/07/23 13:07:31;;;;;;;7.65;3.30;;;;;;;;;;5224324;28;20021;-72
2023/07/23 13:10:02;;;;;;;8.07;3.55;;;;;;;;;;5224428;28;20021;-72
2023/07/23 13:12:33;;;;;;;6.55;3.75;;;;;;;;;;5224352;28;20029;-72
2023/07/23 13:15:03;;;;;;;7.35;3.28;;;;;;;;;;5224457;28;20032;-72
2023/07/23 13:17:34;;;;;;;7.00;3.38;;;;;;;;;;5223822;28;20482;-72
2023/07/23 13:20:05;;;;;;;4.88;3.20;;;;;;;;;;5224427;28;20083;-72
2023/07/23 13:22:36;;;;;;;7.97;3.90;;;;;;;;;;5224483;28;20487;-72
2023/07/23 13:25:06;;;;;;;5.53;3.65;;;;;;;;;;5224355;28;20099;-71
2023/07/23 13:27:36;;;;;;;8.20;4.22;;;;;;;;;;5223878;28;20021;-73
2023/07/23 13:30:07;;;;;;;9.05;3.65;;;;;;;;;;5224315;28;20029;-72
2023/07/23 13:32:37;;;;;;;7.10;3.92;;;;;;;;;;5224421;28;20029;-72
2023/07/23 13:35:07;;;;;;;7.88;4.10;;;;;;;;;;5223198;28;20025;-72
2023/07/23 13:37:38;;;;;;;6.88;4.22;;;;;;;;;;5223737;28;20025;-72
2023/07/23 13:40:08;;;;;;;7.10;3.83;;;;;;;;;;5224233;28;20021;-72
2023/07/23 13:42:38;;;;;;;8.10;4.03;;;;;;;;;;5224027;28;20083;-72
2023/07/23 13:45:09;;;;;;;7.15;3.80;;;;;;;;;;5223894;28;20476;-72
2023/07/23 13:47:39;;;;;;;8.63;3.53;;;;;;;;;;5223557;28;20029;-72
2023/07/23 13:50:09;;;;;;;8.15;3.92;;;;;;;;;;5223667;28;20467;-72
2023/07/23 13:52:40;;;;;;;5.38;3.65;;;;;;;;;;5224134;28;20110;-72
2023/07/23 13:55:10;;;;;;;6.80;3.92;;;;;;;;;;5223938;28;20108;-72
2023/07/23 13:57:41;;;;;;;6.20;3.38;;;;;;;;;;5227847;28;20604;-72
2023/07/23 14:00:12;;;;;;;7.63;3.60;;;;;;;;;;5226553;28;20025;-72
2023/07/23 14:02:43;;;;;;;9.93;4.30;;;;;;;;;;5227923;28;20075;-72
2023/07/23 14:05:13;;;;;;;6.22;4.20;;;;;;;;;;5228209;28;20547;-72
2023/07/23 14:07:45;;;;;;;7.35;3.80;;;;;;;;;;5227560;28;20041;-72
2023/07/23 14:10:16;;;;;;;4.47;3.47;;;;;;;;;;5228080;28;20025;-72
2023/07/23 14:12:46;;;;;;;7.53;4.50;;;;;;;;;;5227833;28;20032;-72
2023/07/23 14:15:16;;;;;;;6.75;3.58;;;;;;;;;;5227748;28;20106;-72
2023/07/23 14:17:47;;;;;;;7.80;3.75;;;;;;;;;;5227514;28;20017;-73
2023/07/23 14:20:17;;;;;;;8.90;4.50;;;;;;;;;;5227888;28;20020;-72
2023/07/23 14:22:47;;;;;;;6.70;3.67;;;;;;;;;;5227756;28;20025;-72
2023/07/23 14:25:17;;;;;;;5.10;3.63;;;;;;;;;;5227294;28;20025;-72
2023/07/23 14:27:48;;;;;;;6.18;3.60;;;;;;;;;;5227353;28;20021;-72
2023/07/23 14:30:18;;;;;;;6.80;3.90;;;;;;;;;;5228008;28;20501;-72
2023/07/23 14:32:48;;;;;;;7.90;4.15;;;;;;;;;;5227864;28;20530;-72
2023/07/23 14:35:19;;;;;;;7.93;3.60;;;;;;;;;;5227359;28;20060;-72
2023/07/23 14:37:49;;;;;;;8.23;3.70;;;;;;;;;;5227367;28;20025;-72
2023/07/23 14:40:19;;;;;;;4.65;3.63;;;;;;;;;;5227269;28;20529;-72
2023/07/23 14:42:49;;;;;;;10.80;3.63;;;;;;;;;;5227420;28;20075;-72
2023/07/23 14:45:20;;;;;;;6.32;3.55;;;;;;;;;;5227492;28;20059;-72
2023/07/23 14:47:50;;;;;;;4.88;3.17;;;;;;;;;;5227206;28;20059;-72
2023/07/23 14:50:21;;;;;;;5.53;3.53;;;;;;;;;;5226932;28;20462;-72
2023/07/23 14:52:51;;;;;;;6.93;3.65;;;;;;;;;;5227430;28;20025;-72
2023/07/23 14:55:22;;;;;;;4.57;3.35;;;;;;;;;;5225672;28;20021;-72
2023/07/23 14:57:52;;;;;;;5.45;3.30;;;;;;;;;;5226806;28;20025;-71
2023/07/23 15:00:23;;;;;;;5.40;3.28;;;;;;;;;;5227167;28;20021;-72
2023/07/23 15:02:53;;;;;;;5.85;3.35;;;;;;;;;;5226499;28;20032;-72
2023/07/23 15:05:23;;;;;;;7.40;3.97;;;;;;;;;;5226900;28;20070;-72
2023/07/23 15:07:53;;;;;;;5.88;4.15;;;;;;;;;;5226315;28;20017;-72